createdAt,value
2023-02-03T00:02:04.229Z,24.53
2023-02-03T00:05:07.957Z,26.00
2023-02-03T00:08:13.133Z,21.73
2023-02-03T00:11:15.521Z,23.77
2023-02-03T00:14:17.631Z,23.43
2023-02-03T00:17:19.971Z,23.37
2023-02-03T00:20:22.289Z,23.60
2023-02-03T00:23:27.410Z,22.80
2023-02-03T00:26:29.878Z,22.15
2023-02-03T00:29:32.017Z,22.57
2023-02-03T00:32:36.494Z,24.93
2023-02-03T00:35:42.565Z,22.42
2023-02-03T00:38:44.588Z,23.97
2023-02-03T00:41:47.668Z,22.77
2023-02-03T00:44:49.688Z,23.13
2023-02-03T00:47:52.812Z,22.10
2023-02-03T00:50:54.961Z,24.53
2023-02-03T00:53:57.014Z,24.43
2023-02-03T00:56:59.035Z,23.10
2023-02-03T01:00:01.105Z,22.77
2023-02-03T01:03:03.499Z,23.20
2023-02-03T01:06:24.867Z,22.47
2023-02-03T01:09:27.847Z,20.93
2023-02-03T01:12:31.221Z,21.77
2023-02-03T01:15:33.309Z,23.33
2023-02-03T01:18:35.934Z,21.87
2023-02-03T01:21:38.953Z,20.30
2023-02-03T01:24:41.052Z,21.93
2023-02-03T01:27:43.125Z,21.33
2023-02-03T01:30:45.450Z,21.43
2023-02-03T01:33:48.841Z,21.80
2023-02-03T01:36:50.878Z,20.80
2023-02-03T01:39:53.786Z,20.93
2023-02-03T01:42:55.822Z,20.80
2023-02-03T01:45:59.877Z,20.67
2023-02-03T01:49:25.042Z,21.17
2023-02-03T01:52:28.236Z,20.83
2023-02-03T01:55:45.024Z,20.00
2023-02-03T01:58:49.555Z,20.07
2023-02-03T02:01:53.109Z,21.25
2023-02-03T02:05:14.639Z,19.73
2023-02-03T02:08:18.728Z,20.67
2023-02-03T02:11:24.294Z,20.17
2023-02-03T02:14:26.319Z,17.23
2023-02-03T02:17:54.350Z,20.77
2023-02-03T02:21:02.151Z,20.33
2023-02-03T02:24:28.987Z,19.37
2023-02-03T02:27:55.617Z,28.17
2023-02-03T02:31:14.158Z,27.33
2023-02-03T02:34:52.101Z,22.00
2023-02-03T02:38:03.136Z,21.23
2023-02-03T02:41:28.484Z,18.43
2023-02-03T02:44:37.812Z,17.80
2023-02-03T02:47:40.417Z,15.87
2023-02-03T02:50:48.156Z,15.77
2023-02-03T02:53:56.124Z,14.40
2023-02-03T02:57:02.036Z,15.70
2023-02-03T03:00:07.021Z,17.80
2023-02-03T03:03:21.591Z,16.73
2023-02-03T03:06:32.309Z,16.65
2023-02-03T03:09:53.261Z,17.50
2023-02-03T03:13:01.794Z,16.93
2023-02-03T03:16:08.805Z,17.47
2023-02-03T03:19:16.704Z,16.87
2023-02-03T03:22:23.100Z,16.03
2023-02-03T03:25:37.986Z,16.13
2023-02-03T03:28:48.863Z,16.67
2023-02-03T03:31:51.309Z,15.73
2023-02-03T03:34:53.965Z,16.60
2023-02-03T03:38:09.825Z,16.77
2023-02-03T03:41:20.936Z,15.47
2023-02-03T03:44:28.155Z,16.00
2023-02-03T03:47:48.304Z,17.13
2023-02-03T03:50:56.308Z,15.47
2023-02-03T03:54:04.020Z,15.97
2023-02-03T03:57:15.719Z,18.13
2023-02-03T04:00:20.668Z,34.77
2023-02-03T04:03:27.938Z,33.58
2023-02-03T04:06:30.013Z,27.47
2023-02-03T04:09:32.585Z,25.20
2023-02-03T04:12:34.719Z,24.50
2023-02-03T04:15:37.212Z,24.23
2023-02-03T04:18:39.176Z,21.77
2023-02-03T04:21:41.382Z,23.93
2023-02-03T04:24:43.330Z,20.63
2023-02-03T04:27:45.404Z,20.50
2023-02-03T04:30:47.436Z,20.20
2023-02-03T04:33:49.581Z,19.93
2023-02-03T04:36:51.624Z,21.00
2023-02-03T04:39:55.497Z,19.93
2023-02-03T04:42:58.167Z,20.53
2023-02-03T04:46:01.326Z,18.47
2023-02-03T04:49:05.620Z,18.50
2023-02-03T04:52:07.967Z,18.93
2023-02-03T04:55:10.029Z,19.17
2023-02-03T04:58:12.072Z,17.23
2023-02-03T05:01:14.188Z,15.00
2023-02-03T05:04:16.459Z,14.83
2023-02-03T05:07:18.458Z,15.40
2023-02-03T05:10:20.499Z,14.90
2023-02-03T05:13:22.574Z,12.37
2023-02-03T05:16:25.142Z,14.40
2023-02-03T05:19:27.231Z,13.17
2023-02-03T05:22:29.526Z,13.43
2023-02-03T05:25:31.602Z,14.03
2023-02-03T05:28:33.843Z,17.00
2023-02-03T05:31:36.842Z,14.50
2023-02-03T05:34:41.270Z,14.17
2023-02-03T05:37:45.718Z,14.77
2023-02-03T05:41:10.191Z,13.23
2023-02-03T05:44:12.352Z,18.73
2023-02-03T05:47:14.687Z,24.90
2023-02-03T05:50:16.790Z,24.30
2023-02-03T05:53:18.897Z,31.07
2023-02-03T05:56:20.923Z,30.70
2023-02-03T05:59:22.932Z,37.50
2023-02-03T06:02:24.940Z,48.93
2023-02-03T06:05:27.137Z,50.87
2023-02-03T06:08:29.128Z,45.27
2023-02-03T06:11:32.174Z,29.73
2023-02-03T06:14:34.213Z,29.00
2023-02-03T06:17:36.794Z,28.00
2023-02-03T06:20:38.937Z,27.10
2023-02-03T06:23:49.163Z,22.83
2023-02-03T06:26:52.197Z,23.10
2023-02-03T06:29:54.391Z,21.47
2023-02-03T06:32:56.576Z,20.73
2023-02-03T06:35:58.803Z,20.13
2023-02-03T06:39:00.913Z,18.93
2023-02-03T06:42:03.056Z,20.83
2023-02-03T06:45:05.780Z,18.03
2023-02-03T06:48:09.836Z,16.85
2023-02-03T06:51:12.074Z,18.57
2023-02-03T06:54:14.800Z,19.73
2023-02-03T06:57:16.849Z,17.50
2023-02-03T07:00:19.658Z,16.97
2023-02-03T07:03:21.676Z,17.53
2023-02-03T07:06:24.359Z,19.60
2023-02-03T07:09:26.380Z,18.67
2023-02-03T07:12:29.090Z,19.17
2023-02-03T07:15:31.339Z,17.20
2023-02-03T07:18:46.812Z,16.50
2023-02-03T07:21:50.285Z,13.97
2023-02-03T07:24:52.336Z,14.73
2023-02-03T07:27:54.847Z,12.90
2023-02-03T07:30:57.328Z,12.80
2023-02-03T07:34:01.187Z,12.33
2023-02-03T07:37:03.336Z,14.03
2023-02-03T07:40:05.762Z,13.43
2023-02-03T07:43:08.063Z,11.90
2023-02-03T07:46:10.149Z,15.23
2023-02-03T07:49:12.553Z,13.00
2023-02-03T07:52:14.594Z,14.30
2023-02-03T07:55:16.940Z,12.90
2023-02-03T07:58:19.036Z,12.87
2023-02-03T08:01:21.101Z,11.90
2023-02-03T08:04:24.450Z,13.83
2023-02-03T08:07:26.516Z,11.00
2023-02-03T08:10:28.858Z,13.03
2023-02-03T08:13:31.430Z,10.67
2023-02-03T08:16:33.537Z,11.50
2023-02-03T08:19:35.623Z,10.80
2023-02-03T08:22:37.704Z,13.37
2023-02-03T08:25:39.781Z,11.20
2023-02-03T08:28:42.138Z,13.57
2023-02-03T08:31:44.559Z,13.73
2023-02-03T08:34:46.772Z,12.27
2023-02-03T08:37:48.779Z,13.77
2023-02-03T08:40:50.876Z,14.03
2023-02-03T08:43:54.207Z,12.75
2023-02-03T08:46:56.231Z,11.80
2023-02-03T08:49:58.394Z,13.25
2023-02-03T08:53:00.479Z,11.75
2023-02-03T08:56:09.586Z,11.40
2023-02-03T08:59:12.302Z,10.98
2023-02-03T09:02:20.084Z,10.63
2023-02-03T09:05:22.465Z,10.80
2023-02-03T09:08:24.656Z,10.90
2023-02-03T09:11:27.113Z,9.40
2023-02-03T09:14:30.136Z,10.98
2023-02-03T09:17:32.179Z,10.10
2023-02-03T09:20:34.306Z,10.07
2023-02-03T09:23:36.611Z,9.27
2023-02-03T09:26:38.661Z,10.65
2023-02-03T09:29:40.870Z,9.13
2023-02-03T09:32:42.947Z,9.40
2023-02-03T09:35:53.429Z,8.50
2023-02-03T09:38:57.114Z,9.07
2023-02-03T09:42:17.244Z,8.82
2023-02-03T09:45:28.217Z,10.40
2023-02-03T09:48:37.679Z,9.68
2023-02-03T09:51:46.470Z,10.40
2023-02-03T09:55:07.151Z,9.85
2023-02-03T09:58:21.721Z,9.13
2023-02-03T10:01:29.548Z,8.93
2023-02-03T10:04:40.606Z,9.20
2023-02-03T10:07:57.615Z,9.32
2023-02-03T10:11:37.379Z,14.13
2023-02-03T10:15:00.682Z,11.05
2023-02-03T10:18:19.992Z,12.40
2023-02-03T10:21:32.546Z,11.77
2023-02-03T10:25:04.113Z,11.30
2023-02-03T10:28:16.230Z,10.50
2023-02-03T10:31:23.362Z,11.77
2023-02-03T10:34:25.942Z,10.32
2023-02-03T10:37:37.654Z,10.85
2023-02-03T10:40:40.010Z,10.27
2023-02-03T10:43:47.997Z,9.85
2023-02-03T10:46:50.074Z,9.57
2023-02-03T10:49:54.419Z,9.10
2023-02-03T10:53:22.536Z,9.07
2023-02-03T10:56:26.924Z,12.30
2023-02-03T10:59:32.274Z,15.57
2023-02-03T11:02:34.935Z,11.32
2023-02-03T11:05:38.566Z,8.98
2023-02-03T11:08:46.641Z,8.68
2023-02-03T11:11:48.655Z,9.60
2023-02-03T11:14:52.656Z,8.93
2023-02-03T11:20:58.483Z,9.13
2023-02-03T11:24:11.186Z,10.32
2023-02-03T11:27:18.142Z,8.18
2023-02-03T11:30:30.465Z,10.25
2023-02-03T11:33:32.821Z,8.38
2023-02-03T11:36:35.927Z,8.07
2023-02-03T11:39:39.230Z,8.23
2023-02-03T11:42:44.103Z,8.93
2023-02-03T11:45:49.549Z,8.05
2023-02-03T11:48:51.519Z,9.35
2023-02-03T11:52:25.339Z,8.77
2023-02-03T11:55:33.033Z,9.38
2023-02-03T11:58:50.172Z,9.32
2023-02-03T12:02:27.802Z,9.25
2023-02-03T12:05:48.628Z,10.80
2023-02-03T12:09:17.951Z,9.60
2023-02-03T12:12:38.989Z,9.20
2023-02-03T12:15:53.003Z,9.63
2023-02-03T12:19:24.722Z,10.50
2023-02-03T12:22:37.978Z,10.18
2023-02-03T12:25:58.023Z,9.65
2023-02-03T12:29:06.379Z,10.27
2023-02-03T12:32:25.356Z,9.18
2023-02-03T12:35:33.944Z,10.07
2023-02-03T12:38:52.207Z,10.55
2023-02-03T12:42:32.476Z,9.93
2023-02-03T12:45:39.889Z,13.05
2023-02-03T12:49:05.534Z,8.77
2023-02-03T12:52:14.443Z,9.63
2023-02-03T12:55:33.346Z,9.80
2023-02-03T12:58:40.285Z,9.87
2023-02-03T13:01:51.865Z,9.33
2023-02-03T13:05:08.386Z,11.40
2023-02-03T13:08:28.551Z,10.43
2023-02-03T13:11:52.484Z,9.63
2023-02-03T13:15:25.546Z,9.37
2023-02-03T13:18:28.320Z,11.20
2023-02-03T13:21:30.341Z,10.40
2023-02-03T13:24:32.662Z,11.03
2023-02-03T13:27:48.570Z,10.33
2023-02-03T13:31:03.618Z,11.70
2023-02-03T13:34:31.065Z,9.93
2023-02-03T13:37:59.774Z,11.40
2023-02-03T13:41:19.665Z,9.70
2023-02-03T13:44:28.646Z,9.37
2023-02-03T13:47:32.256Z,9.87
2023-02-03T13:50:38.718Z,9.13
2023-02-03T13:53:43.938Z,9.68
2023-02-03T13:57:02.482Z,8.87
2023-02-03T14:00:26.543Z,8.63
2023-02-03T14:03:28.639Z,10.23
2023-02-03T14:06:36.681Z,9.27
2023-02-03T14:09:39.833Z,8.67
2023-02-03T14:12:51.054Z,8.27
2023-02-03T14:16:25.750Z,9.00
2023-02-03T14:19:31.433Z,7.55
2023-02-03T14:22:33.650Z,6.57
2023-02-03T14:25:59.149Z,6.67
2023-02-03T14:29:03.272Z,7.40
2023-02-03T14:32:15.306Z,7.68
2023-02-03T14:35:24.548Z,6.67
2023-02-03T14:38:33.328Z,6.30
2023-02-03T14:41:54.205Z,5.80
2023-02-03T14:45:50.545Z,6.17
2023-02-03T14:49:34.242Z,7.30
2023-02-03T14:52:42.454Z,7.23
2023-02-03T14:55:59.230Z,6.43
2023-02-03T14:59:04.914Z,4.70
2023-02-03T15:02:08.078Z,5.73
2023-02-03T15:05:13.364Z,5.97
2023-02-03T15:08:45.162Z,5.23
2023-02-03T15:11:47.981Z,5.00
2023-02-03T15:14:50.112Z,4.70
2023-02-03T15:17:54.872Z,6.10
2023-02-03T15:20:58.723Z,4.73
2023-02-03T15:24:00.703Z,3.43
2023-02-03T15:27:02.931Z,5.83
2023-02-03T15:30:25.523Z,5.63
2023-02-03T15:33:31.794Z,6.43
2023-02-03T15:36:48.479Z,3.67
2023-02-03T15:40:05.099Z,3.93
2023-02-03T15:43:25.290Z,4.50
2023-02-03T15:46:33.835Z,3.50
2023-02-03T15:49:41.920Z,4.20
2023-02-03T15:52:45.317Z,4.73
2023-02-03T15:55:58.965Z,5.30
2023-02-03T15:59:01.251Z,5.47
2023-02-03T16:02:21.436Z,3.50
2023-02-03T16:05:39.437Z,3.80
2023-02-03T16:08:46.519Z,3.80
2023-02-03T16:11:48.924Z,4.10
2023-02-03T16:14:52.417Z,3.90
2023-02-03T16:17:58.085Z,3.87
2023-02-03T16:21:00.155Z,3.40
2023-02-03T16:24:06.823Z,3.10
2023-02-03T16:27:25.529Z,2.53
2023-02-03T16:30:46.247Z,2.40
2023-02-03T16:34:09.593Z,4.13
2023-02-03T16:37:31.988Z,3.63
2023-02-03T16:40:52.669Z,3.83
2023-02-03T16:44:13.170Z,3.70
2023-02-03T16:47:46.758Z,3.70
2023-02-03T16:50:58.255Z,3.63
2023-02-03T16:54:01.072Z,3.50
2023-02-03T16:57:03.226Z,5.13
2023-02-03T17:00:06.213Z,3.40
2023-02-03T17:03:11.302Z,3.23
2023-02-03T17:06:15.050Z,4.37
2023-02-03T17:09:22.206Z,3.30
2023-02-03T17:12:25.814Z,3.00
2023-02-03T17:15:28.356Z,4.90
2023-02-03T17:18:30.964Z,4.63
2023-02-03T17:21:33.230Z,4.47
2023-02-03T17:24:35.909Z,4.37
2023-02-03T17:27:38.027Z,4.60
2023-02-03T17:30:40.461Z,5.13
2023-02-03T17:33:43.346Z,5.30
2023-02-03T17:36:45.394Z,4.13
2023-02-03T17:56:19.635Z,5.00
2023-02-03T17:59:21.898Z,5.53
2023-02-03T18:02:23.994Z,6.10
2023-02-03T18:05:26.234Z,6.20
2023-02-03T18:08:28.193Z,6.10
2023-02-03T18:11:32.060Z,6.97
2023-02-03T18:14:34.525Z,7.20
2023-02-03T18:17:37.859Z,5.13
2023-02-03T18:20:40.101Z,6.57
2023-02-03T18:23:42.642Z,6.03
2023-02-03T18:26:50.595Z,5.67
2023-02-03T18:29:52.740Z,6.40
2023-02-03T18:32:55.695Z,6.57
2023-02-03T18:35:59.005Z,7.70
2023-02-03T18:39:01.145Z,6.70
2023-02-03T18:42:04.227Z,6.77
2023-02-03T18:45:07.104Z,8.90
2023-02-03T18:48:09.180Z,8.67
2023-02-03T18:51:13.513Z,9.07
2023-02-03T18:54:15.489Z,8.63
2023-02-03T18:57:17.774Z,9.07
2023-02-03T19:00:20.277Z,9.03
2023-02-03T19:03:24.987Z,11.47
2023-02-03T19:06:30.523Z,12.73
2023-02-03T19:09:34.126Z,12.50
2023-02-03T19:12:36.239Z,10.20
2023-02-03T19:15:38.385Z,11.77
2023-02-03T19:18:40.855Z,12.53
2023-02-03T19:21:44.522Z,10.65
2023-02-03T19:24:46.864Z,12.60
2023-02-03T19:27:49.140Z,10.70
2023-02-03T19:30:57.351Z,10.20
2023-02-03T19:34:02.065Z,9.57
2023-02-03T19:37:04.330Z,11.07
2023-02-03T19:40:07.002Z,10.30
2023-02-03T19:43:09.045Z,10.20
2023-02-03T19:46:13.834Z,12.07
2023-02-03T19:52:17.805Z,9.97
2023-02-03T19:55:19.881Z,10.47
2023-02-03T19:58:24.166Z,12.40
2023-02-03T20:01:27.121Z,12.00
2023-02-03T20:04:29.311Z,12.87
2023-02-03T20:07:32.898Z,13.27
2023-02-03T20:10:35.033Z,14.23
2023-02-03T20:13:37.382Z,13.67
2023-02-03T20:16:39.506Z,12.77
2023-02-03T20:19:41.758Z,11.27
2023-02-03T20:22:43.840Z,12.60
2023-02-03T20:25:50.310Z,10.23
2023-02-03T20:28:52.431Z,9.83
2023-02-03T20:31:55.048Z,10.87
2023-02-03T20:34:57.821Z,9.30
2023-02-03T20:38:00.060Z,9.87
2023-02-03T20:41:02.968Z,9.93
2023-02-03T20:44:10.255Z,8.33
2023-02-03T20:47:23.457Z,9.70
2023-02-03T20:50:34.440Z,8.93
2023-02-03T20:53:44.454Z,10.07
2023-02-03T20:56:46.568Z,9.63
2023-02-03T20:59:48.591Z,9.77
2023-02-03T21:03:09.880Z,9.47
2023-02-03T21:06:17.347Z,10.07
2023-02-03T21:09:21.357Z,8.70
2023-02-03T21:12:23.640Z,9.57
2023-02-03T21:15:29.227Z,9.73
2023-02-03T21:18:49.257Z,9.83
2023-02-03T21:21:53.992Z,9.90
2023-02-03T21:25:00.088Z,11.13
2023-02-03T21:28:02.264Z,9.93
2023-02-03T21:31:16.077Z,10.00
2023-02-03T21:34:32.569Z,10.77
2023-02-03T21:37:40.621Z,8.03
2023-02-03T21:40:43.827Z,7.47
2023-02-03T21:43:50.119Z,9.20
2023-02-03T21:46:52.241Z,8.93
2023-02-03T21:49:54.267Z,8.23
2023-02-03T21:52:56.723Z,7.60
2023-02-03T21:56:36.799Z,7.97
2023-02-03T21:59:43.336Z,8.33
2023-02-03T22:03:00.797Z,7.47
2023-02-03T22:06:16.015Z,8.90
2023-02-03T22:12:21.019Z,7.57
2023-02-03T22:15:22.986Z,9.57
2023-02-03T22:18:26.226Z,7.97
2023-02-03T22:21:28.559Z,8.17
2023-02-03T22:24:30.605Z,6.83
2023-02-03T22:27:32.811Z,8.17
2023-02-03T22:30:35.002Z,7.53
2023-02-03T22:33:37.953Z,8.53
2023-02-03T22:36:40.590Z,8.47
2023-02-03T22:39:42.637Z,7.40
2023-02-03T22:42:45.249Z,8.37
2023-02-03T22:45:47.528Z,10.33
2023-02-03T22:48:49.617Z,8.33
2023-02-03T22:51:51.701Z,8.17
2023-02-03T22:54:53.741Z,8.93
2023-02-03T22:57:56.621Z,8.40
2023-02-03T23:00:58.739Z,7.93
2023-02-03T23:04:00.871Z,8.30
2023-02-03T23:07:02.913Z,8.27
2023-02-03T23:10:06.638Z,10.13
2023-02-03T23:13:08.743Z,10.17
2023-02-03T23:16:10.961Z,10.93
2023-02-03T23:19:13.073Z,11.17
2023-02-03T23:22:16.036Z,11.60
2023-02-03T23:25:18.167Z,12.33
2023-02-03T23:28:20.539Z,11.80
2023-02-03T23:31:22.841Z,9.43
2023-02-03T23:34:43.609Z,10.07
2023-02-03T23:37:45.982Z,7.97
2023-02-03T23:40:48.021Z,8.43
2023-02-03T23:43:51.430Z,8.70
2023-02-03T23:46:53.472Z,8.70
2023-02-03T23:49:55.664Z,9.67
2023-02-03T23:52:58.868Z,10.07
2023-02-03T23:56:01.387Z,11.37
2023-02-03T23:59:03.584Z,9.60
